Terminal Aerodrome Forecast
Issued by NWS Jackson, KY

Home | Current Version | Previous Version | Text Only | Print | Product List | Glossary On
Versions: 1 2 3 4 5 6 7 8 9 10 11 12 13 14 15 16 17 18 19 20 21 22 23 24 25 26 27 28 29 30 31
000
FTUS43 KJKL 030250 AAD
TAFJKL
TAF AMD
KJKL 030250Z 0303/0324 00000KT P6SM VCSH BKN023 BKN028 OVC040
     FM030600 00000KT 5SM BR VCSH SCT005 BKN050
     FM030900 00000KT 1SM BR VCSH OVC005
     FM031300 00000KT P6SM VCSH FEW005 BKN015
     FM031600 VRB04KT 5SM SHRA VCTS SCT015CB OVC030=

USA.gov is the U.S. government's official web portal to all federal, state and local government web resources and services.